Snav Lazio — IBUH — position and weather

sailwx.info

Track history (hours):
 
Tides and Currents Weather Stations Pressure Air Temp Water Temp Dewpoint Dewpoint Depression Visibility Wind Speed Wind Dir Waves Ship Positions

Snav Lazio

Last reported at 2015-Jan-27 05:22 UTC. Time now 2015-Jan-27 12:26 UTC.
Position N 40°50' E 014°15'.

Length 162 m; draft 6 m.

Type: Ship (hazmat cat A). MMSI: 247163100.

Date/timePositionNaut miles runAvg speedWind from/ knotsBaromVisibWave heightAir tempDewpointWater temp
2015-Jan-27 05:22N 40°50' E 014°15'6 6.8
2015-Jan-27 04:33N 40°45' E 014°14'1414.2
2015-Jan-27 03:33N 40°32' E 014°07'12618.0
2015-Jan-26 20:33N 38°29' E 013°31'1918.6
2015-Jan-26 19:33N 38°11' E 013°26'4 4.2
2015-Jan-26 18:31N 38°08' E 013°22'0 0.0
2015-Jan-26 17:31N 38°08' E 013°22'0 0.0
2015-Jan-26 16:31N 38°08' E 013°22'0 0.0
2015-Jan-26 15:31N 38°08' E 013°22'0 0.0
2015-Jan-26 14:31N 38°08' E 013°22'0 0.0
2015-Jan-26 13:31N 38°08' E 013°22'0 0.0
2015-Jan-26 12:31N 38°08' E 013°22'0 0.0
2015-Jan-26 11:31N 38°08' E 013°22'0 0.0
2015-Jan-26 10:31N 38°08' E 013°22'0 0.0
2015-Jan-26 09:31N 38°08' E 013°22'0 0.0
2015-Jan-26 08:33N 38°08' E 013°22'0 0.0
2015-Jan-26 07:33N 38°08' E 013°22'0 0.0
2015-Jan-26 06:33N 38°08' E 013°22'1 0.6
2015-Jan-26 05:33N 38°08' E 013°22'1010.3
2015-Jan-26 04:34N 38°17' E 013°28'1818.0
2015-Jan-26 03:33N 38°35' E 013°33'1918.3
2015-Jan-26 02:31N 38°53' E 013°38'8316.6
2015-Jan-25 21:32N 40°14' E 014°01'1717.0
2015-Jan-25 20:34N 40°30' E 014°07'1717.4
2015-Jan-25 19:34N 40°46' E 014°15'4 0.8
2015-Jan-25 14:06N 40°50' E 014°15'0 0.0
2015-Jan-25 13:24N 40°50' E 014°15'0 0.0
2015-Jan-25 12:24N 40°50' E 014°15'0 0.0
2015-Jan-25 11:24N 40°50' E 014°15'0 0.0
2015-Jan-25 10:30N 40°50' E 014°15'0 0.0
2015-Jan-25 09:24N 40°50' E 014°15'0 0.1
2015-Jan-25 05:06N 40°50' E 014°16'610.6
2015-Jan-25 04:33N 40°45' E 014°14'1514.9
2015-Jan-25 03:33N 40°31' E 014°06'1917.7
2015-Jan-25 02:31N 40°13' E 014°02'10818.0
2015-Jan-24 20:33N 38°28' E 013°31'1818.4
2015-Jan-24 19:33N 38°10' E 013°26'4 4.0
2015-Jan-24 18:33N 38°08' E 013°22'0 0.0
2015-Jan-24 17:33N 38°08' E 013°22'0 0.0
2015-Jan-24 16:33N 38°08' E 013°22'0 0.0
2015-Jan-24 15:33N 38°08' E 013°22'0 0.0
2015-Jan-24 14:33N 38°08' E 013°22'0 0.0
2015-Jan-24 13:33N 38°08' E 013°22'0 0.0
2015-Jan-24 12:33N 38°08' E 013°22'0 0.0
2015-Jan-24 11:33N 38°08' E 013°22'0 0.0
2015-Jan-24 10:33N 38°08' E 013°22'0 0.0
2015-Jan-24 09:33N 38°08' E 013°22'0 0.0
2015-Jan-24 08:33N 38°08' E 013°22'0 0.0
2015-Jan-24 07:33N 38°08' E 013°22'0 0.0
2015-Jan-24 06:33N 38°08' E 013°22'1 0.6
2015-Jan-24 05:34N 38°08' E 013°22'1212.0
2015-Jan-24 04:33N 38°19' E 013°28'1817.7
2015-Jan-24 03:33N 38°36' E 013°33'10417.3
2015-Jan-23 21:33N 40°17' E 014°03'1716.8
2015-Jan-23 20:33N 40°34' E 014°08'1717.0
2015-Jan-23 19:33N 40°49' E 014°17'1 1.4
2015-Jan-23 18:31N 40°50' E 014°15'0 0.0
2015-Jan-23 05:26N 40°50' E 014°15'910.6
2015-Jan-23 04:33N 40°41' E 014°12'1818.3
2015-Jan-23 03:33N 40°24' E 014°05'10817.3
2015-Jan-22 21:19N 38°39' E 013°34'1317.1
2015-Jan-22 20:33N 38°26' E 013°31'1717.1
2015-Jan-22 19:33N 38°09' E 013°26'3 3.2
2015-Jan-22 18:32N 38°08' E 013°22'0 0.0
2015-Jan-22 17:32N 38°08' E 013°22'0 0.0
2015-Jan-22 16:32N 38°08' E 013°22'0 0.0
2015-Jan-22 15:32N 38°08' E 013°22'0 0.0
2015-Jan-22 14:32N 38°08' E 013°22'0 0.0
2015-Jan-22 13:32N 38°08' E 013°22'0 0.0
2015-Jan-22 12:32N 38°08' E 013°22'0 0.0
2015-Jan-22 11:32N 38°08' E 013°22'0 0.0
2015-Jan-22 10:32N 38°08' E 013°22'0 0.0
2015-Jan-22 09:32N 38°08' E 013°22'0 0.0
2015-Jan-22 08:32N 38°08' E 013°22'0 0.0
2015-Jan-22 07:32N 38°08' E 013°22'0 0.0
2015-Jan-22 06:32N 38°08' E 013°22'0 0.0
2015-Jan-22 05:32N 38°08' E 013°22'5 5.6
2015-Jan-22 04:33N 38°13' E 013°26'1616.0
2015-Jan-22 03:34N 38°28' E 013°30'1717.2
2015-Jan-22 02:33N 38°45' E 013°35'9117.8
2015-Jan-21 21:26N 40°14' E 014°02'1618.2
2015-Jan-21 20:33N 40°29' E 014°06'1818.1
2015-Jan-21 19:33N 40°46' E 014°16'5 0.6
2015-Jan-21 12:26N 40°50' E 014°15'0 0.0
2015-Jan-21 11:25N 40°50' E 014°15'0 0.0
2015-Jan-21 09:32N 40°50' E 014°15'0 0.0
2015-Jan-21 08:20N 40°50' E 014°15'0 0.0
2015-Jan-21 07:33N 40°50' E 014°15'0 0.0
2015-Jan-21 06:33N 40°50' E 014°15'0 0.0
2015-Jan-21 05:31N 40°50' E 014°15'9 9.4
2015-Jan-21 04:33N 40°42' E 014°12'1818.3
2015-Jan-21 03:33N 40°24' E 014°04'12017.1
2015-Jan-20 20:33N 38°28' E 013°31'1716.9
2015-Jan-20 19:34N 38°11' E 013°26'5 4.8
2015-Jan-20 18:33N 38°08' E 013°22'0 0.0
2015-Jan-20 17:33N 38°08' E 013°22'0 0.0
2015-Jan-20 16:33N 38°08' E 013°22'0 0.0
2015-Jan-20 15:33N 38°08' E 013°22'0 0.0
2015-Jan-20 14:30N 38°08' E 013°22'0 0.0
2015-Jan-20 13:33N 38°08' E 013°22'0 0.0
2015-Jan-20 12:33N 38°08' E 013°22'0 0.0
2015-Jan-20 11:33N 38°08' E 013°22'0 0.0
2015-Jan-20 10:30N 38°08' E 013°22'0 0.0
2015-Jan-20 09:33N 38°08' E 013°22'0 0.0
2015-Jan-20 08:33N 38°08' E 013°22'0 0.0
2015-Jan-20 07:33N 38°08' E 013°22'0 0.0
2015-Jan-20 06:33N 38°08' E 013°22'1 0.7
2015-Jan-20 05:33N 38°08' E 013°22'1110.6
2015-Jan-20 04:33N 38°18' E 013°27'1717.0
2015-Jan-20 03:33N 38°34' E 013°32'1716.9
2015-Jan-20 02:33N 38°50' E 013°37'8817.1
2015-Jan-19 21:25N 40°17' E 014°01'1517.1
2015-Jan-19 20:33N 40°31' E 014°04'1717.4
2015-Jan-19 19:33N 40°47' E 014°15'4 3.5
2015-Jan-19 18:27N 40°50' E 014°15'0 0.0
2015-Jan-19 17:27N 40°50' E 014°15'0 0.0
2015-Jan-19 16:31N 40°50' E 014°15'0 0.0
2015-Jan-19 15:30N 40°50' E 014°15'0 0.0
2015-Jan-19 14:18N 40°50' E 014°15'0 0.0
2015-Jan-19 13:28N 40°50' E 014°15'0 0.0
2015-Jan-19 12:18N 40°50' E 014°15'1 0.1
2015-Jan-19 05:06N 40°50' E 014°17'814.9
2015-Jan-19 04:33N 40°42' E 014°13'1717.0
2015-Jan-19 03:33N 40°26' E 014°05'11117.2
2015-Jan-18 21:07N 38°38' E 013°35'1017.1
2015-Jan-18 20:33N 38°28' E 013°32'1717.4
2015-Jan-18 19:33N 38°12' E 013°27'5 5.1
2015-Jan-18 18:32N 38°08' E 013°22'0 0.0
2015-Jan-18 17:32N 38°08' E 013°22'0 0.0
2015-Jan-18 16:32N 38°08' E 013°22'0 0.0
2015-Jan-18 15:32N 38°08' E 013°22'0 0.0
2015-Jan-18 14:32N 38°08' E 013°22'0 0.0
2015-Jan-18 13:32N 38°08' E 013°22'0 0.0
2015-Jan-18 12:32N 38°08' E 013°22'0 0.0
2015-Jan-18 11:32N 38°08' E 013°22'0 0.0
2015-Jan-18 10:32N 38°08' E 013°22'0 0.0
2015-Jan-18 09:32N 38°08' E 013°22'0 0.0
2015-Jan-18 08:32N 38°08' E 013°22'0 0.0
2015-Jan-18 07:32N 38°08' E 013°22'0 0.0
2015-Jan-18 06:32N 38°08' E 013°22'1 1.5
2015-Jan-18 05:33N 38°08' E 013°24'1313.2
2015-Jan-18 04:33N 38°21' E 013°28'1616.1
2015-Jan-18 03:33N 38°36' E 013°33'1616.0
2015-Jan-18 02:33N 38°52' E 013°37'1616.0
2015-Jan-18 01:33N 39°08' E 013°41'6917.2
2015-Jan-17 21:32N 40°15' E 014°01'1616.7
2015-Jan-17 20:33N 40°31' E 014°06'1716.6
2015-Jan-17 19:33N 40°46' E 014°15'4 1.2
2015-Jan-17 16:06N 40°50' E 014°15'0 0.0
2015-Jan-17 15:12N 40°50' E 014°15'0 0.0
2015-Jan-17 13:24N 40°50' E 014°15'  
Track history (hours):
 
Tides and Currents Weather Stations Pressure Air Temp Water Temp Dewpoint Dewpoint Depression Visibility Wind Speed Wind Dir Waves Ship Positions

Snav Lazio

Last reported at 2015-Jan-27 05:22 UTC. Time now 2015-Jan-27 12:26 UTC.
Position N 40°50' E 014°15'.

Length 162 m; draft 6 m.

Type: Ship (hazmat cat A). MMSI: 247163100.

Date/timePositionNaut miles runAvg speedWind from/ knotsBaromVisibWave heightAir tempDewpointWater temp
2015-Jan-27 05:22N 40°50' E 014°15'6 6.8
2015-Jan-27 04:33N 40°45' E 014°14'1414.2
2015-Jan-27 03:33N 40°32' E 014°07'12618.0
2015-Jan-26 20:33N 38°29' E 013°31'1918.6
2015-Jan-26 19:33N 38°11' E 013°26'4 4.2
2015-Jan-26 18:31N 38°08' E 013°22'0 0.0
2015-Jan-26 17:31N 38°08' E 013°22'0 0.0
2015-Jan-26 16:31N 38°08' E 013°22'0 0.0
2015-Jan-26 15:31N 38°08' E 013°22'0 0.0
2015-Jan-26 14:31N 38°08' E 013°22'0 0.0
2015-Jan-26 13:31N 38°08' E 013°22'0 0.0
2015-Jan-26 12:31N 38°08' E 013°22'0 0.0
2015-Jan-26 11:31N 38°08' E 013°22'0 0.0
2015-Jan-26 10:31N 38°08' E 013°22'0 0.0
2015-Jan-26 09:31N 38°08' E 013°22'0 0.0
2015-Jan-26 08:33N 38°08' E 013°22'0 0.0
2015-Jan-26 07:33N 38°08' E 013°22'0 0.0
2015-Jan-26 06:33N 38°08' E 013°22'1 0.6
2015-Jan-26 05:33N 38°08' E 013°22'1010.3
2015-Jan-26 04:34N 38°17' E 013°28'1818.0
2015-Jan-26 03:33N 38°35' E 013°33'1918.3
2015-Jan-26 02:31N 38°53' E 013°38'8316.6
2015-Jan-25 21:32N 40°14' E 014°01'1717.0
2015-Jan-25 20:34N 40°30' E 014°07'1717.4
2015-Jan-25 19:34N 40°46' E 014°15'4 0.8
2015-Jan-25 14:06N 40°50' E 014°15'0 0.0
2015-Jan-25 13:24N 40°50' E 014°15'0 0.0
2015-Jan-25 12:24N 40°50' E 014°15'0 0.0
2015-Jan-25 11:24N 40°50' E 014°15'0 0.0
2015-Jan-25 10:30N 40°50' E 014°15'0 0.0
2015-Jan-25 09:24N 40°50' E 014°15'0 0.1
2015-Jan-25 05:06N 40°50' E 014°16'610.6
2015-Jan-25 04:33N 40°45' E 014°14'1514.9
2015-Jan-25 03:33N 40°31' E 014°06'1917.7
2015-Jan-25 02:31N 40°13' E 014°02'10818.0
2015-Jan-24 20:33N 38°28' E 013°31'1818.4
2015-Jan-24 19:33N 38°10' E 013°26'4 4.0
2015-Jan-24 18:33N 38°08' E 013°22'0 0.0
2015-Jan-24 17:33N 38°08' E 013°22'0 0.0
2015-Jan-24 16:33N 38°08' E 013°22'0 0.0
2015-Jan-24 15:33N 38°08' E 013°22'0 0.0
2015-Jan-24 14:33N 38°08' E 013°22'0 0.0
2015-Jan-24 13:33N 38°08' E 013°22'0 0.0
2015-Jan-24 12:33N 38°08' E 013°22'0 0.0
2015-Jan-24 11:33N 38°08' E 013°22'0 0.0
2015-Jan-24 10:33N 38°08' E 013°22'0 0.0
2015-Jan-24 09:33N 38°08' E 013°22'0 0.0
2015-Jan-24 08:33N 38°08' E 013°22'0 0.0
2015-Jan-24 07:33N 38°08' E 013°22'0 0.0
2015-Jan-24 06:33N 38°08' E 013°22'1 0.6
2015-Jan-24 05:34N 38°08' E 013°22'1212.0
2015-Jan-24 04:33N 38°19' E 013°28'1817.7
2015-Jan-24 03:33N 38°36' E 013°33'10417.3
2015-Jan-23 21:33N 40°17' E 014°03'1716.8
2015-Jan-23 20:33N 40°34' E 014°08'1717.0
2015-Jan-23 19:33N 40°49' E 014°17'1 1.4
2015-Jan-23 18:31N 40°50' E 014°15'0 0.0
2015-Jan-23 05:26N 40°50' E 014°15'910.6
2015-Jan-23 04:33N 40°41' E 014°12'1818.3
2015-Jan-23 03:33N 40°24' E 014°05'10817.3
2015-Jan-22 21:19N 38°39' E 013°34'1317.1
2015-Jan-22 20:33N 38°26' E 013°31'1717.1
2015-Jan-22 19:33N 38°09' E 013°26'3 3.2
2015-Jan-22 18:32N 38°08' E 013°22'0 0.0
2015-Jan-22 17:32N 38°08' E 013°22'0 0.0
2015-Jan-22 16:32N 38°08' E 013°22'0 0.0
2015-Jan-22 15:32N 38°08' E 013°22'0 0.0
2015-Jan-22 14:32N 38°08' E 013°22'0 0.0
2015-Jan-22 13:32N 38°08' E 013°22'0 0.0
2015-Jan-22 12:32N 38°08' E 013°22'0 0.0
2015-Jan-22 11:32N 38°08' E 013°22'0 0.0
2015-Jan-22 10:32N 38°08' E 013°22'0 0.0
2015-Jan-22 09:32N 38°08' E 013°22'0 0.0
2015-Jan-22 08:32N 38°08' E 013°22'0 0.0
2015-Jan-22 07:32N 38°08' E 013°22'0 0.0
2015-Jan-22 06:32N 38°08' E 013°22'0 0.0
2015-Jan-22 05:32N 38°08' E 013°22'5 5.6
2015-Jan-22 04:33N 38°13' E 013°26'1616.0
2015-Jan-22 03:34N 38°28' E 013°30'1717.2
2015-Jan-22 02:33N 38°45' E 013°35'9117.8
2015-Jan-21 21:26N 40°14' E 014°02'1618.2
2015-Jan-21 20:33N 40°29' E 014°06'1818.1
2015-Jan-21 19:33N 40°46' E 014°16'5 0.6
2015-Jan-21 12:26N 40°50' E 014°15'0 0.0
2015-Jan-21 11:25N 40°50' E 014°15'0 0.0
2015-Jan-21 09:32N 40°50' E 014°15'0 0.0
2015-Jan-21 08:20N 40°50' E 014°15'0 0.0
2015-Jan-21 07:33N 40°50' E 014°15'0 0.0
2015-Jan-21 06:33N 40°50' E 014°15'0 0.0
2015-Jan-21 05:31N 40°50' E 014°15'9 9.4
2015-Jan-21 04:33N 40°42' E 014°12'1818.3
2015-Jan-21 03:33N 40°24' E 014°04'12017.1
2015-Jan-20 20:33N 38°28' E 013°31'1716.9
2015-Jan-20 19:34N 38°11' E 013°26'5 4.8
2015-Jan-20 18:33N 38°08' E 013°22'0 0.0
2015-Jan-20 17:33N 38°08' E 013°22'0 0.0
2015-Jan-20 16:33N 38°08' E 013°22'0 0.0
2015-Jan-20 15:33N 38°08' E 013°22'0 0.0
2015-Jan-20 14:30N 38°08' E 013°22'0 0.0
2015-Jan-20 13:33N 38°08' E 013°22'0 0.0
2015-Jan-20 12:33N 38°08' E 013°22'0 0.0
2015-Jan-20 11:33N 38°08' E 013°22'0 0.0
2015-Jan-20 10:30N 38°08' E 013°22'0 0.0
2015-Jan-20 09:33N 38°08' E 013°22'0 0.0
2015-Jan-20 08:33N 38°08' E 013°22'0 0.0
2015-Jan-20 07:33N 38°08' E 013°22'0 0.0
2015-Jan-20 06:33N 38°08' E 013°22'1 0.7
2015-Jan-20 05:33N 38°08' E 013°22'1110.6
2015-Jan-20 04:33N 38°18' E 013°27'1717.0
2015-Jan-20 03:33N 38°34' E 013°32'1716.9
2015-Jan-20 02:33N 38°50' E 013°37'8817.1
2015-Jan-19 21:25N 40°17' E 014°01'1517.1
2015-Jan-19 20:33N 40°31' E 014°04'1717.4
2015-Jan-19 19:33N 40°47' E 014°15'4 3.5
2015-Jan-19 18:27N 40°50' E 014°15'0 0.0
2015-Jan-19 17:27N 40°50' E 014°15'0 0.0
2015-Jan-19 16:31N 40°50' E 014°15'0 0.0
2015-Jan-19 15:30N 40°50' E 014°15'0 0.0
2015-Jan-19 14:18N 40°50' E 014°15'0 0.0
2015-Jan-19 13:28N 40°50' E 014°15'0 0.0
2015-Jan-19 12:18N 40°50' E 014°15'1 0.1
2015-Jan-19 05:06N 40°50' E 014°17'814.9
2015-Jan-19 04:33N 40°42' E 014°13'1717.0
2015-Jan-19 03:33N 40°26' E 014°05'11117.2
2015-Jan-18 21:07N 38°38' E 013°35'1017.1
2015-Jan-18 20:33N 38°28' E 013°32'1717.4
2015-Jan-18 19:33N 38°12' E 013°27'5 5.1
2015-Jan-18 18:32N 38°08' E 013°22'0 0.0
2015-Jan-18 17:32N 38°08' E 013°22'0 0.0
2015-Jan-18 16:32N 38°08' E 013°22'0 0.0
2015-Jan-18 15:32N 38°08' E 013°22'0 0.0
2015-Jan-18 14:32N 38°08' E 013°22'0 0.0
2015-Jan-18 13:32N 38°08' E 013°22'0 0.0
2015-Jan-18 12:32N 38°08' E 013°22'0 0.0
2015-Jan-18 11:32N 38°08' E 013°22'0 0.0
2015-Jan-18 10:32N 38°08' E 013°22'0 0.0
2015-Jan-18 09:32N 38°08' E 013°22'0 0.0
2015-Jan-18 08:32N 38°08' E 013°22'0 0.0
2015-Jan-18 07:32N 38°08' E 013°22'0 0.0
2015-Jan-18 06:32N 38°08' E 013°22'1 1.5
2015-Jan-18 05:33N 38°08' E 013°24'1313.2
2015-Jan-18 04:33N 38°21' E 013°28'1616.1
2015-Jan-18 03:33N 38°36' E 013°33'1616.0
2015-Jan-18 02:33N 38°52' E 013°37'1616.0
2015-Jan-18 01:33N 39°08' E 013°41'6917.2
2015-Jan-17 21:32N 40°15' E 014°01'1616.7
2015-Jan-17 20:33N 40°31' E 014°06'1716.6
2015-Jan-17 19:33N 40°46' E 014°15'4 1.2
2015-Jan-17 16:06N 40°50' E 014°15'0 0.0
2015-Jan-17 15:12N 40°50' E 014°15'0 0.0
2015-Jan-17 13:24N 40°50' E 014°15'  

Dump ship's entire track history